sensor_id;sensor_type;location;lat;lon;timestamp;P1;durP1;ratioP1;P2;durP2;ratioP2
14320;SDS011;7244;47.364;8.464;2024-02-04T00:11:01;6;;;5;;
14320;SDS011;7244;47.364;8.464;2024-02-04T00:26:02;5;;;4;;
14320;SDS011;7244;47.364;8.464;2024-02-04T00:42:02;4;;;4;;
14320;SDS011;7244;47.364;8.464;2024-02-04T00:58:01;5;;;4;;
14320;SDS011;7244;47.364;8.464;2024-02-04T01:14:01;4;;;3;;
14320;SDS011;7244;47.364;8.464;2024-02-04T01:29:02;3;;;3;;
14320;SDS011;7244;47.364;8.464;2024-02-04T01:45:01;6;;;6;;
14320;SDS011;7244;47.364;8.464;2024-02-04T02:01:02;6;;;6;;
14320;SDS011;7244;47.364;8.464;2024-02-04T02:16:03;5;;;3;;
14320;SDS011;7244;47.364;8.464;2024-02-04T02:32:02;2;;;2;;
14320;SDS011;7244;47.364;8.464;2024-02-04T02:48:02;2;;;2;;
14320;SDS011;7244;47.364;8.464;2024-02-04T03:04:02;2;;;2;;
14320;SDS011;7244;47.364;8.464;2024-02-04T03:19:04;3;;;3;;
14320;SDS011;7244;47.364;8.464;2024-02-04T03:35:02;8;;;7;;
14320;SDS011;7244;47.364;8.464;2024-02-04T03:51:01;8;;;7;;
14320;SDS011;7244;47.364;8.464;2024-02-04T04:07:02;11;;;10;;
14320;SDS011;7244;47.364;8.464;2024-02-04T04:22:02;11;;;10;;
14320;SDS011;7244;47.364;8.464;2024-02-04T04:38:01;14;;;11;;
14320;SDS011;7244;47.364;8.464;2024-02-04T04:54:02;11;;;10;;
14320;SDS011;7244;47.364;8.464;2024-02-04T05:09:02;6;;;5;;
14320;SDS011;7244;47.364;8.464;2024-02-04T05:25:02;4;;;4;;
14320;SDS011;7244;47.364;8.464;2024-02-04T05:41:01;4;;;4;;
14320;SDS011;7244;47.364;8.464;2024-02-04T05:57:01;6;;;5;;
14320;SDS011;7244;47.364;8.464;2024-02-04T06:12:02;7;;;7;;
14320;SDS011;7244;47.364;8.464;2024-02-04T06:28:01;7;;;6;;
14320;SDS011;7244;47.364;8.464;2024-02-04T06:44:02;7;;;6;;
14320;SDS011;7244;47.364;8.464;2024-02-04T06:59:02;6;;;6;;
14320;SDS011;7244;47.364;8.464;2024-02-04T07:15:02;8;;;7;;
14320;SDS011;7244;47.364;8.464;2024-02-04T07:31:02;8;;;7;;
14320;SDS011;7244;47.364;8.464;2024-02-04T07:47:01;7;;;6;;
14320;SDS011;7244;47.364;8.464;2024-02-04T08:02:01;8;;;7;;
14320;SDS011;7244;47.364;8.464;2024-02-04T08:18:02;10;;;9;;
14320;SDS011;7244;47.364;8.464;2024-02-04T08:34:02;10;;;9;;
14320;SDS011;7244;47.364;8.464;2024-02-04T08:51:02;8;;;7;;
14320;SDS011;7244;47.364;8.464;2024-02-04T09:07:02;10;;;8;;
14320;SDS011;7244;47.364;8.464;2024-02-04T09:23:02;7;;;6;;
14320;SDS011;7244;47.364;8.464;2024-02-04T09:39:02;6;;;5;;
14320;SDS011;7244;47.364;8.464;2024-02-04T09:55:02;6;;;5;;
14320;SDS011;7244;47.364;8.464;2024-02-04T10:11:02;6;;;5;;
14320;SDS011;7244;47.364;8.464;2024-02-04T10:26:02;5;;;4;;
14320;SDS011;7244;47.364;8.464;2024-02-04T10:42:02;4;;;3;;
14320;SDS011;7244;47.364;8.464;2024-02-04T10:58:01;2;;;2;;
14320;SDS011;7244;47.364;8.464;2024-02-04T11:14:04;3;;;3;;
14320;SDS011;7244;47.364;8.464;2024-02-04T11:29:02;5;;;3;;
14320;SDS011;7244;47.364;8.464;2024-02-04T11:45:10;3;;;3;;
14320;SDS011;7244;47.364;8.464;2024-02-04T12:01:02;5;;;3;;
14320;SDS011;7244;47.364;8.464;2024-02-04T12:17:06;3;;;3;;
14320;SDS011;7244;47.364;8.464;2024-02-04T12:32:02;4;;;4;;
14320;SDS011;7244;47.364;8.464;2024-02-04T12:48:01;5;;;4;;
14320;SDS011;7244;47.364;8.464;2024-02-04T13:04:01;7;;;5;;
14320;SDS011;7244;47.364;8.464;2024-02-04T13:19:02;7;;;5;;
14320;SDS011;7244;47.364;8.464;2024-02-04T13:20:02;7;;;5;;
14320;SDS011;7244;47.364;8.464;2024-02-04T13:21:01;7;;;5;;
14320;SDS011;7244;47.364;8.464;2024-02-04T13:22:02;7;;;5;;
14320;SDS011;7244;47.364;8.464;2024-02-04T13:23:02;7;;;5;;
14320;SDS011;7244;47.364;8.464;2024-02-04T13:24:02;7;;;5;;
14320;SDS011;7244;47.364;8.464;2024-02-04T13:25:02;7;;;5;;
14320;SDS011;7244;47.364;8.464;2024-02-04T13:26:02;7;;;5;;
14320;SDS011;7244;47.364;8.464;2024-02-04T13:27:02;7;;;5;;
14320;SDS011;7244;47.364;8.464;2024-02-04T13:28:02;7;;;5;;
14320;SDS011;7244;47.364;8.464;2024-02-04T13:29:02;7;;;5;;
14320;SDS011;7244;47.364;8.464;2024-02-04T13:30:02;7;;;5;;
14320;SDS011;7244;47.364;8.464;2024-02-04T13:31:01;7;;;5;;
14320;SDS011;7244;47.364;8.464;2024-02-04T13:32:02;7;;;5;;
14320;SDS011;7244;47.364;8.464;2024-02-04T13:33:02;7;;;5;;
14320;SDS011;7244;47.364;8.464;2024-02-04T13:34:02;8;;;4;;
14320;SDS011;7244;47.364;8.464;2024-02-04T13:51:01;5;;;5;;
14320;SDS011;7244;47.364;8.464;2024-02-04T14:07:02;10;;;5;;
14320;SDS011;7244;47.364;8.464;2024-02-04T14:22:02;6;;;4;;
14320;SDS011;7244;47.364;8.464;2024-02-04T14:38:01;6;;;4;;
14320;SDS011;7244;47.364;8.464;2024-02-04T14:54:02;5;;;4;;
14320;SDS011;7244;47.364;8.464;2024-02-04T15:09:02;5;;;4;;
14320;SDS011;7244;47.364;8.464;2024-02-04T15:25:02;6;;;4;;
14320;SDS011;7244;47.364;8.464;2024-02-04T15:41:02;9;;;4;;
14320;SDS011;7244;47.364;8.464;2024-02-04T15:57:02;8;;;5;;
14320;SDS011;7244;47.364;8.464;2024-02-04T16:12:04;8;;;7;;
14320;SDS011;7244;47.364;8.464;2024-02-04T16:28:02;8;;;7;;
14320;SDS011;7244;47.364;8.464;2024-02-04T16:44:02;9;;;6;;
14320;SDS011;7244;47.364;8.464;2024-02-04T17:00:03;7;;;6;;
14320;SDS011;7244;47.364;8.464;2024-02-04T17:15:02;7;;;5;;
14320;SDS011;7244;47.364;8.464;2024-02-04T17:31:02;8;;;7;;
14320;SDS011;7244;47.364;8.464;2024-02-04T17:47:02;8;;;7;;
14320;SDS011;7244;47.364;8.464;2024-02-04T18:02:01;10;;;8;;
14320;SDS011;7244;47.364;8.464;2024-02-04T18:18:02;6;;;6;;
14320;SDS011;7244;47.364;8.464;2024-02-04T18:34:01;8;;;7;;
14320;SDS011;7244;47.364;8.464;2024-02-04T18:50:02;7;;;6;;
14320;SDS011;7244;47.364;8.464;2024-02-04T19:05:02;12;;;7;;
14320;SDS011;7244;47.364;8.464;2024-02-04T19:21:02;8;;;7;;
14320;SDS011;7244;47.364;8.464;2024-02-04T19:37:01;10;;;9;;
14320;SDS011;7244;47.364;8.464;2024-02-04T19:53:04;15;;;12;;
14320;SDS011;7244;47.364;8.464;2024-02-04T20:08:02;15;;;13;;
14320;SDS011;7244;47.364;8.464;2024-02-04T20:24:02;14;;;11;;
14320;SDS011;7244;47.364;8.464;2024-02-04T20:40:02;13;;;10;;
14320;SDS011;7244;47.364;8.464;2024-02-04T20:55:02;13;;;10;;
14320;SDS011;7244;47.364;8.464;2024-02-04T21:11:02;20;;;16;;
14320;SDS011;7244;47.364;8.464;2024-02-04T21:27:02;16;;;14;;
14320;SDS011;7244;47.364;8.464;2024-02-04T21:43:01;13;;;12;;
14320;SDS011;7244;47.364;8.464;2024-02-04T21:58:01;14;;;11;;
14320;SDS011;7244;47.364;8.464;2024-02-04T22:14:02;14;;;11;;
14320;SDS011;7244;47.364;8.464;2024-02-04T22:30:02;16;;;13;;
14320;SDS011;7244;47.364;8.464;2024-02-04T22:46:01;16;;;13;;
14320;SDS011;7244;47.364;8.464;2024-02-04T23:01:02;12;;;11;;
14320;SDS011;7244;47.364;8.464;2024-02-04T23:17:02;17;;;15;;
14320;SDS011;7244;47.364;8.464;2024-02-04T23:33:02;14;;;12;;
14320;SDS011;7244;47.364;8.464;2024-02-04T23:48:02;17;;;14;;
